sensor_id;sensor_type;location;lat;lon;timestamp;temperature;humidity
59311;DHT22;45078;51.654;21.250;2023-09-19T00:00:38;17.20;99.90
59311;DHT22;45078;51.654;21.250;2023-09-19T00:03:06;17.20;99.90
59311;DHT22;45078;51.654;21.250;2023-09-19T00:05:34;17.20;99.90
59311;DHT22;45078;51.654;21.250;2023-09-19T00:08:01;17.20;99.90
59311;DHT22;45078;51.654;21.250;2023-09-19T00:10:31;17.10;99.90
59311;DHT22;45078;51.654;21.250;2023-09-19T00:12:58;17.10;99.90
59311;DHT22;45078;51.654;21.250;2023-09-19T00:15:31;17.10;99.90
59311;DHT22;45078;51.654;21.250;2023-09-19T00:18:01;17.10;99.90
59311;DHT22;45078;51.654;21.250;2023-09-19T00:20:27;17.10;99.90
59311;DHT22;45078;51.654;21.250;2023-09-19T00:22:55;17.10;99.90
59311;DHT22;45078;51.654;21.250;2023-09-19T00:25:20;17.10;99.90
59311;DHT22;45078;51.654;21.250;2023-09-19T00:27:49;17.10;99.90
59311;DHT22;45078;51.654;21.250;2023-09-19T00:30:17;17.10;99.90
59311;DHT22;45078;51.654;21.250;2023-09-19T00:32:47;17.10;99.90
59311;DHT22;45078;51.654;21.250;2023-09-19T00:35:14;17.10;99.90
59311;DHT22;45078;51.654;21.250;2023-09-19T00:37:41;17.10;99.90
59311;DHT22;45078;51.654;21.250;2023-09-19T00:40:10;17.10;99.90
59311;DHT22;45078;51.654;21.250;2023-09-19T00:42:38;17.10;99.90
59311;DHT22;45078;51.654;21.250;2023-09-19T00:45:05;17.10;99.90
59311;DHT22;45078;51.654;21.250;2023-09-19T00:47:31;17.10;99.90
59311;DHT22;45078;51.654;21.250;2023-09-19T00:49:57;17.10;99.90
59311;DHT22;45078;51.654;21.250;2023-09-19T00:52:24;17.10;99.90
59311;DHT22;45078;51.654;21.250;2023-09-19T00:54:50;17.10;99.90
59311;DHT22;45078;51.654;21.250;2023-09-19T00:57:16;17.10;99.90
59311;DHT22;45078;51.654;21.250;2023-09-19T00:59:43;17.10;99.90
59311;DHT22;45078;51.654;21.250;2023-09-19T01:02:09;17.10;99.90
59311;DHT22;45078;51.654;21.250;2023-09-19T01:04:36;17.10;99.90
59311;DHT22;45078;51.654;21.250;2023-09-19T01:07:02;17.00;99.90
59311;DHT22;45078;51.654;21.250;2023-09-19T01:09:28;17.10;99.90
59311;DHT22;45078;51.654;21.250;2023-09-19T01:11:58;17.10;99.90
59311;DHT22;45078;51.654;21.250;2023-09-19T01:14:47;17.00;99.90
59311;DHT22;45078;51.654;21.250;2023-09-19T01:17:31;17.10;99.90
59311;DHT22;45078;51.654;21.250;2023-09-19T01:20:11;17.00;99.90
59311;DHT22;45078;51.654;21.250;2023-09-19T01:22:48;17.00;99.90
59311;DHT22;45078;51.654;21.250;2023-09-19T01:30:57;17.00;99.90
59311;DHT22;45078;51.654;21.250;2023-09-19T01:33:26;17.00;99.90
59311;DHT22;45078;51.654;21.250;2023-09-19T01:35:52;17.00;99.90
59311;DHT22;45078;51.654;21.250;2023-09-19T01:38:19;16.90;99.90
59311;DHT22;45078;51.654;21.250;2023-09-19T01:40:57;17.00;99.90
59311;DHT22;45078;51.654;21.250;2023-09-19T01:43:33;17.00;99.90
59311;DHT22;45078;51.654;21.250;2023-09-19T01:46:12;17.00;99.90
59311;DHT22;45078;51.654;21.250;2023-09-19T01:49:09;17.00;99.90
59311;DHT22;45078;51.654;21.250;2023-09-19T01:52:04;17.00;99.90
59311;DHT22;45078;51.654;21.250;2023-09-19T01:54:35;17.00;99.90
59311;DHT22;45078;51.654;21.250;2023-09-19T01:57:13;17.00;99.90
59311;DHT22;45078;51.654;21.250;2023-09-19T01:59:52;17.10;99.90
59311;DHT22;45078;51.654;21.250;2023-09-19T02:02:21;17.10;99.90
59311;DHT22;45078;51.654;21.250;2023-09-19T02:04:48;17.10;99.90
59311;DHT22;45078;51.654;21.250;2023-09-19T02:07:14;17.10;99.90
59311;DHT22;45078;51.654;21.250;2023-09-19T02:09:40;17.20;99.90
59311;DHT22;45078;51.654;21.250;2023-09-19T02:12:09;17.20;99.90
59311;DHT22;45078;51.654;21.250;2023-09-19T02:14:34;17.20;99.90
59311;DHT22;45078;51.654;21.250;2023-09-19T02:17:02;17.20;99.90
59311;DHT22;45078;51.654;21.250;2023-09-19T02:19:30;17.20;99.90
59311;DHT22;45078;51.654;21.250;2023-09-19T02:21:58;17.20;99.90
59311;DHT22;45078;51.654;21.250;2023-09-19T02:24:23;17.20;99.90
59311;DHT22;45078;51.654;21.250;2023-09-19T02:26:49;17.30;99.90
59311;DHT22;45078;51.654;21.250;2023-09-19T02:29:15;17.30;99.90
59311;DHT22;45078;51.654;21.250;2023-09-19T02:31:41;17.30;99.90
59311;DHT22;45078;51.654;21.250;2023-09-19T02:34:06;17.30;99.90
59311;DHT22;45078;51.654;21.250;2023-09-19T02:36:32;17.30;99.90
59311;DHT22;45078;51.654;21.250;2023-09-19T02:38:58;17.30;99.90
59311;DHT22;45078;51.654;21.250;2023-09-19T02:41:23;17.40;99.90
59311;DHT22;45078;51.654;21.250;2023-09-19T02:43:49;17.40;99.90
59311;DHT22;45078;51.654;21.250;2023-09-19T02:46:14;17.40;99.90
59311;DHT22;45078;51.654;21.250;2023-09-19T02:48:40;17.40;99.90
59311;DHT22;45078;51.654;21.250;2023-09-19T02:51:07;17.40;99.90
59311;DHT22;45078;51.654;21.250;2023-09-19T02:53:32;17.40;99.90
59311;DHT22;45078;51.654;21.250;2023-09-19T02:55:58;17.40;99.90
59311;DHT22;45078;51.654;21.250;2023-09-19T02:58:24;17.40;99.90
59311;DHT22;45078;51.654;21.250;2023-09-19T03:00:50;17.40;99.90
59311;DHT22;45078;51.654;21.250;2023-09-19T03:03:17;17.50;99.90
59311;DHT22;45078;51.654;21.250;2023-09-19T03:05:43;17.40;99.90
59311;DHT22;45078;51.654;21.250;2023-09-19T03:08:12;17.50;99.90
59311;DHT22;45078;51.654;21.250;2023-09-19T03:10:40;17.50;99.90
59311;DHT22;45078;51.654;21.250;2023-09-19T03:13:06;17.50;99.90
59311;DHT22;45078;51.654;21.250;2023-09-19T03:15:35;17.50;99.90
59311;DHT22;45078;51.654;21.250;2023-09-19T03:18:04;17.50;99.90
59311;DHT22;45078;51.654;21.250;2023-09-19T03:20:30;17.50;99.90
59311;DHT22;45078;51.654;21.250;2023-09-19T03:22:56;17.50;99.90
59311;DHT22;45078;51.654;21.250;2023-09-19T03:25:22;17.50;99.90
59311;DHT22;45078;51.654;21.250;2023-09-19T03:27:48;17.60;99.90
59311;DHT22;45078;51.654;21.250;2023-09-19T03:30:14;17.60;99.90
59311;DHT22;45078;51.654;21.250;2023-09-19T03:32:48;17.60;99.90
59311;DHT22;45078;51.654;21.250;2023-09-19T03:35:16;17.60;99.90
59311;DHT22;45078;51.654;21.250;2023-09-19T03:37:42;17.50;99.90
59311;DHT22;45078;51.654;21.250;2023-09-19T03:40:09;17.60;99.90
59311;DHT22;45078;51.654;21.250;2023-09-19T03:42:38;17.60;99.90
59311;DHT22;45078;51.654;21.250;2023-09-19T03:45:05;17.60;99.90
59311;DHT22;45078;51.654;21.250;2023-09-19T03:47:31;17.60;99.90
59311;DHT22;45078;51.654;21.250;2023-09-19T03:49:57;17.60;99.90
59311;DHT22;45078;51.654;21.250;2023-09-19T03:52:22;17.60;99.90
59311;DHT22;45078;51.654;21.250;2023-09-19T03:54:48;17.60;99.90
59311;DHT22;45078;51.654;21.250;2023-09-19T03:57:14;17.70;99.90
59311;DHT22;45078;51.654;21.250;2023-09-19T03:59:42;17.60;99.90
59311;DHT22;45078;51.654;21.250;2023-09-19T04:02:11;17.60;99.90
59311;DHT22;45078;51.654;21.250;2023-09-19T04:04:50;17.60;99.90
59311;DHT22;45078;51.654;21.250;2023-09-19T04:07:17;17.60;99.90
59311;DHT22;45078;51.654;21.250;2023-09-19T04:09:44;17.60;99.90
59311;DHT22;45078;51.654;21.250;2023-09-19T04:12:11;17.70;99.90
59311;DHT22;45078;51.654;21.250;2023-09-19T04:14:37;17.60;99.90
59311;DHT22;45078;51.654;21.250;2023-09-19T04:17:04;17.60;99.90
59311;DHT22;45078;51.654;21.250;2023-09-19T04:19:31;17.70;99.90
59311;DHT22;45078;51.654;21.250;2023-09-19T04:21:56;17.60;99.90
59311;DHT22;45078;51.654;21.250;2023-09-19T04:24:22;17.70;99.90
59311;DHT22;45078;51.654;21.250;2023-09-19T04:26:48;17.70;99.90
59311;DHT22;45078;51.654;21.250;2023-09-19T04:29:13;17.70;99.90
59311;DHT22;45078;51.654;21.250;2023-09-19T04:31:40;17.70;99.90
59311;DHT22;45078;51.654;21.250;2023-09-19T04:34:06;17.70;99.90
59311;DHT22;45078;51.654;21.250;2023-09-19T04:36:33;17.70;99.90
59311;DHT22;45078;51.654;21.250;2023-09-19T04:38:59;17.70;99.90
59311;DHT22;45078;51.654;21.250;2023-09-19T04:41:24;17.70;99.90
59311;DHT22;45078;51.654;21.250;2023-09-19T04:43:50;17.70;99.90
59311;DHT22;45078;51.654;21.250;2023-09-19T04:46:16;17.70;99.90
59311;DHT22;45078;51.654;21.250;2023-09-19T04:48:43;17.70;99.90
59311;DHT22;45078;51.654;21.250;2023-09-19T04:51:09;17.60;99.90
59311;DHT22;45078;51.654;21.250;2023-09-19T04:53:36;17.60;99.90
59311;DHT22;45078;51.654;21.250;2023-09-19T04:56:02;17.60;99.90
59311;DHT22;45078;51.654;21.250;2023-09-19T04:58:29;17.60;99.90
59311;DHT22;45078;51.654;21.250;2023-09-19T05:00:55;17.60;99.90
59311;DHT22;45078;51.654;21.250;2023-09-19T05:03:21;17.70;99.90
59311;DHT22;45078;51.654;21.250;2023-09-19T05:05:47;17.60;99.90
59311;DHT22;45078;51.654;21.250;2023-09-19T05:08:14;17.70;99.90
59311;DHT22;45078;51.654;21.250;2023-09-19T05:10:40;17.70;99.90
59311;DHT22;45078;51.654;21.250;2023-09-19T05:13:06;17.70;99.90
59311;DHT22;45078;51.654;21.250;2023-09-19T05:15:35;17.70;99.90
59311;DHT22;45078;51.654;21.250;2023-09-19T05:18:01;17.80;99.90
59311;DHT22;45078;51.654;21.250;2023-09-19T05:20:27;17.80;99.90
59311;DHT22;45078;51.654;21.250;2023-09-19T05:23:07;17.80;99.90
59311;DHT22;45078;51.654;21.250;2023-09-19T05:25:35;17.80;99.90
59311;DHT22;45078;51.654;21.250;2023-09-19T05:28:08;17.80;99.90
59311;DHT22;45078;51.654;21.250;2023-09-19T05:30:35;17.90;99.90
59311;DHT22;45078;51.654;21.250;2023-09-19T05:33:05;17.90;99.90
59311;DHT22;45078;51.654;21.250;2023-09-19T05:35:31;17.90;99.90
59311;DHT22;45078;51.654;21.250;2023-09-19T05:37:57;17.90;99.90
59311;DHT22;45078;51.654;21.250;2023-09-19T05:40:24;17.90;99.90
59311;DHT22;45078;51.654;21.250;2023-09-19T05:42:50;18.00;99.90
59311;DHT22;45078;51.654;21.250;2023-09-19T05:45:18;18.00;99.90
59311;DHT22;45078;51.654;21.250;2023-09-19T05:47:51;18.00;99.90
59311;DHT22;45078;51.654;21.250;2023-09-19T05:50:17;18.00;99.90
59311;DHT22;45078;51.654;21.250;2023-09-19T05:52:47;18.00;99.90
59311;DHT22;45078;51.654;21.250;2023-09-19T05:55:17;18.00;99.90
59311;DHT22;45078;51.654;21.250;2023-09-19T05:57:43;18.00;99.90
59311;DHT22;45078;51.654;21.250;2023-09-19T06:00:09;18.10;99.90
59311;DHT22;45078;51.654;21.250;2023-09-19T06:02:39;18.10;99.90
59311;DHT22;45078;51.654;21.250;2023-09-19T06:05:06;18.10;99.90
59311;DHT22;45078;51.654;21.250;2023-09-19T06:07:35;18.20;99.90
59311;DHT22;45078;51.654;21.250;2023-09-19T06:10:06;18.20;99.90
59311;DHT22;45078;51.654;21.250;2023-09-19T06:12:33;18.20;99.90
59311;DHT22;45078;51.654;21.250;2023-09-19T06:15:00;18.30;99.90
59311;DHT22;45078;51.654;21.250;2023-09-19T06:17:26;18.30;99.90
59311;DHT22;45078;51.654;21.250;2023-09-19T06:19:53;18.30;99.90
59311;DHT22;45078;51.654;21.250;2023-09-19T06:22:18;18.40;99.90
59311;DHT22;45078;51.654;21.250;2023-09-19T06:24:45;18.40;99.90
59311;DHT22;45078;51.654;21.250;2023-09-19T06:27:12;18.50;99.90
59311;DHT22;45078;51.654;21.250;2023-09-19T06:29:38;18.50;99.90
59311;DHT22;45078;51.654;21.250;2023-09-19T06:32:10;18.60;99.90
59311;DHT22;45078;51.654;21.250;2023-09-19T06:34:36;18.70;99.90
59311;DHT22;45078;51.654;21.250;2023-09-19T06:37:04;18.80;99.90
59311;DHT22;45078;51.654;21.250;2023-09-19T06:39:31;18.80;99.90
59311;DHT22;45078;51.654;21.250;2023-09-19T06:41:57;18.90;99.90
59311;DHT22;45078;51.654;21.250;2023-09-19T06:44:23;19.00;99.90
59311;DHT22;45078;51.654;21.250;2023-09-19T06:46:50;19.10;99.90
59311;DHT22;45078;51.654;21.250;2023-09-19T06:49:17;19.30;99.90
59311;DHT22;45078;51.654;21.250;2023-09-19T06:51:42;19.40;99.90
59311;DHT22;45078;51.654;21.250;2023-09-19T06:54:09;19.50;99.90
59311;DHT22;45078;51.654;21.250;2023-09-19T06:56:35;19.50;99.90
59311;DHT22;45078;51.654;21.250;2023-09-19T06:59:01;19.60;99.90
59311;DHT22;45078;51.654;21.250;2023-09-19T07:01:28;19.60;99.90
59311;DHT22;45078;51.654;21.250;2023-09-19T07:03:53;19.70;99.90
59311;DHT22;45078;51.654;21.250;2023-09-19T07:06:20;19.70;99.90
59311;DHT22;45078;51.654;21.250;2023-09-19T07:08:46;19.70;99.90
59311;DHT22;45078;51.654;21.250;2023-09-19T07:11:11;19.80;99.90
59311;DHT22;45078;51.654;21.250;2023-09-19T07:13:38;19.80;99.90
59311;DHT22;45078;51.654;21.250;2023-09-19T07:16:04;19.80;99.90
59311;DHT22;45078;51.654;21.250;2023-09-19T07:18:30;19.90;99.90
59311;DHT22;45078;51.654;21.250;2023-09-19T07:20:58;19.90;99.90
59311;DHT22;45078;51.654;21.250;2023-09-19T07:23:30;19.90;99.90
59311;DHT22;45078;51.654;21.250;2023-09-19T07:26:01;20.00;99.90
59311;DHT22;45078;51.654;21.250;2023-09-19T07:28:28;20.00;99.90
59311;DHT22;45078;51.654;21.250;2023-09-19T07:30:54;19.90;99.90
59311;DHT22;45078;51.654;21.250;2023-09-19T07:33:19;19.90;99.90
59311;DHT22;45078;51.654;21.250;2023-09-19T07:35:46;20.00;99.90
59311;DHT22;45078;51.654;21.250;2023-09-19T07:38:12;20.00;99.90
59311;DHT22;45078;51.654;21.250;2023-09-19T07:40:38;20.00;99.90
59311;DHT22;45078;51.654;21.250;2023-09-19T07:43:03;20.00;99.90
59311;DHT22;45078;51.654;21.250;2023-09-19T07:45:30;20.10;99.90
59311;DHT22;45078;51.654;21.250;2023-09-19T07:47:56;19.90;99.90
59311;DHT22;45078;51.654;21.250;2023-09-19T07:50:22;19.90;99.90
59311;DHT22;45078;51.654;21.250;2023-09-19T07:52:49;19.80;99.90
59311;DHT22;45078;51.654;21.250;2023-09-19T07:55:19;19.90;99.90
59311;DHT22;45078;51.654;21.250;2023-09-19T07:57:46;19.90;99.90
59311;DHT22;45078;51.654;21.250;2023-09-19T08:00:13;19.90;99.90
59311;DHT22;45078;51.654;21.250;2023-09-19T08:02:40;20.10;99.90
59311;DHT22;45078;51.654;21.250;2023-09-19T08:05:08;20.10;99.90
59311;DHT22;45078;51.654;21.250;2023-09-19T08:07:41;20.00;99.90
59311;DHT22;45078;51.654;21.250;2023-09-19T08:10:08;20.00;99.90
59311;DHT22;45078;51.654;21.250;2023-09-19T08:12:36;20.10;99.90
59311;DHT22;45078;51.654;21.250;2023-09-19T08:15:03;20.20;99.90
59311;DHT22;45078;51.654;21.250;2023-09-19T08:17:29;20.20;99.90
59311;DHT22;45078;51.654;21.250;2023-09-19T08:19:59;20.20;99.90
59311;DHT22;45078;51.654;21.250;2023-09-19T08:22:25;20.30;99.90
59311;DHT22;45078;51.654;21.250;2023-09-19T08:24:52;20.20;99.90
59311;DHT22;45078;51.654;21.250;2023-09-19T08:27:18;20.20;99.90
59311;DHT22;45078;51.654;21.250;2023-09-19T08:29:46;20.30;99.90
59311;DHT22;45078;51.654;21.250;2023-09-19T08:32:12;20.40;99.90
59311;DHT22;45078;51.654;21.250;2023-09-19T08:34:38;20.40;99.90
59311;DHT22;45078;51.654;21.250;2023-09-19T08:37:03;20.40;99.90
59311;DHT22;45078;51.654;21.250;2023-09-19T08:39:30;20.40;99.90
59311;DHT22;45078;51.654;21.250;2023-09-19T08:41:59;20.50;99.90
59311;DHT22;45078;51.654;21.250;2023-09-19T08:44:25;20.50;99.90
59311;DHT22;45078;51.654;21.250;2023-09-19T08:46:55;20.50;99.90
59311;DHT22;45078;51.654;21.250;2023-09-19T08:49:53;20.70;99.90
59311;DHT22;45078;51.654;21.250;2023-09-19T08:52:27;20.70;99.90
59311;DHT22;45078;51.654;21.250;2023-09-19T08:54:58;20.70;99.90
59311;DHT22;45078;51.654;21.250;2023-09-19T08:57:29;20.70;99.90
59311;DHT22;45078;51.654;21.250;2023-09-19T08:59:55;20.80;99.90
59311;DHT22;45078;51.654;21.250;2023-09-19T09:02:22;20.70;99.90
59311;DHT22;45078;51.654;21.250;2023-09-19T09:04:49;20.80;99.90
59311;DHT22;45078;51.654;21.250;2023-09-19T09:07:16;20.80;99.90
59311;DHT22;45078;51.654;21.250;2023-09-19T09:09:44;20.80;99.90
59311;DHT22;45078;51.654;21.250;2023-09-19T09:12:14;20.80;99.90
59311;DHT22;45078;51.654;21.250;2023-09-19T09:14:45;20.70;99.90
59311;DHT22;45078;51.654;21.250;2023-09-19T09:17:11;20.60;99.90
59311;DHT22;45078;51.654;21.250;2023-09-19T09:19:37;20.60;99.90
59311;DHT22;45078;51.654;21.250;2023-09-19T09:22:10;20.50;99.90
59311;DHT22;45078;51.654;21.250;2023-09-19T09:24:37;20.50;99.90
59311;DHT22;45078;51.654;21.250;2023-09-19T09:27:05;20.50;99.90
59311;DHT22;45078;51.654;21.250;2023-09-19T09:29:46;20.50;99.90
59311;DHT22;45078;51.654;21.250;2023-09-19T09:32:30;20.50;99.90
59311;DHT22;45078;51.654;21.250;2023-09-19T09:35:01;20.60;99.90
59311;DHT22;45078;51.654;21.250;2023-09-19T09:37:29;20.60;99.90
59311;DHT22;45078;51.654;21.250;2023-09-19T09:39:56;20.70;99.90
59311;DHT22;45078;51.654;21.250;2023-09-19T09:42:36;20.70;99.90
59311;DHT22;45078;51.654;21.250;2023-09-19T09:45:20;20.70;99.90
59311;DHT22;45078;51.654;21.250;2023-09-19T09:48:03;20.80;99.90
59311;DHT22;45078;51.654;21.250;2023-09-19T09:50:33;20.80;99.90
59311;DHT22;45078;51.654;21.250;2023-09-19T09:53:27;20.80;99.90
59311;DHT22;45078;51.654;21.250;2023-09-19T09:56:05;20.80;99.90
59311;DHT22;45078;51.654;21.250;2023-09-19T09:58:36;20.80;99.90
59311;DHT22;45078;51.654;21.250;2023-09-19T10:01:04;20.80;99.90
59311;DHT22;45078;51.654;21.250;2023-09-19T10:03:36;20.70;99.90
59311;DHT22;45078;51.654;21.250;2023-09-19T10:06:07;20.70;99.90
59311;DHT22;45078;51.654;21.250;2023-09-19T10:09:07;20.70;99.90
59311;DHT22;45078;51.654;21.250;2023-09-19T10:11:47;20.70;99.90
59311;DHT22;45078;51.654;21.250;2023-09-19T10:14:17;20.70;99.90
59311;DHT22;45078;51.654;21.250;2023-09-19T10:16:49;20.60;99.90
59311;DHT22;45078;51.654;21.250;2023-09-19T10:21:55;20.60;99.90
59311;DHT22;45078;51.654;21.250;2023-09-19T10:24:22;20.50;99.90
59311;DHT22;45078;51.654;21.250;2023-09-19T10:26:50;20.50;99.90
59311;DHT22;45078;51.654;21.250;2023-09-19T10:29:17;20.50;99.90
59311;DHT22;45078;51.654;21.250;2023-09-19T10:31:47;20.60;99.90
59311;DHT22;45078;51.654;21.250;2023-09-19T10:34:17;20.60;99.90
59311;DHT22;45078;51.654;21.250;2023-09-19T10:36:46;20.60;99.90
59311;DHT22;45078;51.654;21.250;2023-09-19T10:39:15;20.60;99.90
59311;DHT22;45078;51.654;21.250;2023-09-19T10:41:50;20.60;99.90
59311;DHT22;45078;51.654;21.250;2023-09-19T10:44:23;20.50;99.90
59311;DHT22;45078;51.654;21.250;2023-09-19T10:46:49;20.50;99.90
59311;DHT22;45078;51.654;21.250;2023-09-19T10:49:18;20.40;99.90
59311;DHT22;45078;51.654;21.250;2023-09-19T10:51:45;20.20;99.90
59311;DHT22;45078;51.654;21.250;2023-09-19T10:54:16;20.10;99.90
59311;DHT22;45078;51.654;21.250;2023-09-19T10:56:50;20.10;99.90
59311;DHT22;45078;51.654;21.250;2023-09-19T10:59:21;19.90;99.90
59311;DHT22;45078;51.654;21.250;2023-09-19T11:01:51;19.80;99.90
59311;DHT22;45078;51.654;21.250;2023-09-19T11:07:09;19.60;99.90
59311;DHT22;45078;51.654;21.250;2023-09-19T11:09:50;19.50;99.90
59311;DHT22;45078;51.654;21.250;2023-09-19T11:15:07;19.40;99.90
59311;DHT22;45078;51.654;21.250;2023-09-19T11:17:38;19.40;99.90
59311;DHT22;45078;51.654;21.250;2023-09-19T11:30:44;19.10;99.90
59311;DHT22;45078;51.654;21.250;2023-09-19T11:33:31;19.00;99.90
59311;DHT22;45078;51.654;21.250;2023-09-19T11:36:14;19.00;99.90
59311;DHT22;45078;51.654;21.250;2023-09-19T11:43:48;19.00;99.90
59311;DHT22;45078;51.654;21.250;2023-09-19T11:46:14;18.90;99.90
59311;DHT22;45078;51.654;21.250;2023-09-19T11:48:48;18.90;99.90
59311;DHT22;45078;51.654;21.250;2023-09-19T11:51:19;18.80;99.90
59311;DHT22;45078;51.654;21.250;2023-09-19T11:53:58;18.80;99.90
59311;DHT22;45078;51.654;21.250;2023-09-19T11:56:28;18.80;99.90
59311;DHT22;45078;51.654;21.250;2023-09-19T11:58:55;18.80;99.90
59311;DHT22;45078;51.654;21.250;2023-09-19T12:03:53;18.80;99.90
59311;DHT22;45078;51.654;21.250;2023-09-19T12:06:20;18.80;99.90
59311;DHT22;45078;51.654;21.250;2023-09-19T12:08:47;18.80;99.90
59311;DHT22;45078;51.654;21.250;2023-09-19T12:11:14;18.80;99.90
59311;DHT22;45078;51.654;21.250;2023-09-19T12:13:45;18.80;99.90
59311;DHT22;45078;51.654;21.250;2023-09-19T12:16:21;18.80;99.90
59311;DHT22;45078;51.654;21.250;2023-09-19T12:18:48;18.80;99.90
59311;DHT22;45078;51.654;21.250;2023-09-19T12:21:31;18.80;99.90
59311;DHT22;45078;51.654;21.250;2023-09-19T12:24:13;18.80;99.90
59311;DHT22;45078;51.654;21.250;2023-09-19T12:26:43;18.80;99.90
59311;DHT22;45078;51.654;21.250;2023-09-19T12:29:15;18.80;99.90
59311;DHT22;45078;51.654;21.250;2023-09-19T12:31:56;18.80;99.90
59311;DHT22;45078;51.654;21.250;2023-09-19T12:34:30;18.80;99.90
59311;DHT22;45078;51.654;21.250;2023-09-19T12:37:13;18.80;99.90
59311;DHT22;45078;51.654;21.250;2023-09-19T12:39:52;18.80;99.90
59311;DHT22;45078;51.654;21.250;2023-09-19T12:42:24;18.80;99.90
59311;DHT22;45078;51.654;21.250;2023-09-19T12:44:54;18.80;99.90
59311;DHT22;45078;51.654;21.250;2023-09-19T12:47:23;18.80;99.90
59311;DHT22;45078;51.654;21.250;2023-09-19T12:52:42;18.80;99.90
59311;DHT22;45078;51.654;21.250;2023-09-19T12:55:23;18.80;99.90
59311;DHT22;45078;51.654;21.250;2023-09-19T13:00:37;18.80;99.90
59311;DHT22;45078;51.654;21.250;2023-09-19T13:03:33;18.80;99.90
59311;DHT22;45078;51.654;21.250;2023-09-19T13:06:03;18.80;99.90
59311;DHT22;45078;51.654;21.250;2023-09-19T13:08:35;18.80;99.90
59311;DHT22;45078;51.654;21.250;2023-09-19T13:11:16;18.80;99.90
59311;DHT22;45078;51.654;21.250;2023-09-19T13:14:01;18.80;99.90
59311;DHT22;45078;51.654;21.250;2023-09-19T13:19:35;18.80;99.90
59311;DHT22;45078;51.654;21.250;2023-09-19T13:22:01;18.80;99.90
59311;DHT22;45078;51.654;21.250;2023-09-19T13:24:28;18.80;99.90
59311;DHT22;45078;51.654;21.250;2023-09-19T13:26:56;18.90;99.90
59311;DHT22;45078;51.654;21.250;2023-09-19T13:29:22;18.90;99.90
59311;DHT22;45078;51.654;21.250;2023-09-19T13:31:49;18.90;99.90
59311;DHT22;45078;51.654;21.250;2023-09-19T13:34:15;18.90;99.90
59311;DHT22;45078;51.654;21.250;2023-09-19T13:36:43;19.00;99.90
59311;DHT22;45078;51.654;21.250;2023-09-19T13:39:09;19.00;99.90
59311;DHT22;45078;51.654;21.250;2023-09-19T13:41:35;18.90;99.90
59311;DHT22;45078;51.654;21.250;2023-09-19T13:44:04;18.90;99.90
59311;DHT22;45078;51.654;21.250;2023-09-19T13:46:30;18.90;99.90
59311;DHT22;45078;51.654;21.250;2023-09-19T13:48:59;18.90;99.90
59311;DHT22;45078;51.654;21.250;2023-09-19T13:51:26;18.90;99.90
59311;DHT22;45078;51.654;21.250;2023-09-19T13:53:52;18.90;99.90
59311;DHT22;45078;51.654;21.250;2023-09-19T13:56:17;18.90;99.90
59311;DHT22;45078;51.654;21.250;2023-09-19T13:58:43;18.90;99.90
59311;DHT22;45078;51.654;21.250;2023-09-19T14:01:09;18.80;99.90
59311;DHT22;45078;51.654;21.250;2023-09-19T14:03:38;18.90;99.90
59311;DHT22;45078;51.654;21.250;2023-09-19T14:06:05;18.90;99.90
59311;DHT22;45078;51.654;21.250;2023-09-19T14:08:31;18.90;99.90
59311;DHT22;45078;51.654;21.250;2023-09-19T14:10:58;18.90;99.90
59311;DHT22;45078;51.654;21.250;2023-09-19T14:13:24;18.90;99.90
59311;DHT22;45078;51.654;21.250;2023-09-19T14:15:51;18.90;99.90
59311;DHT22;45078;51.654;21.250;2023-09-19T14:18:16;18.90;99.90
59311;DHT22;45078;51.654;21.250;2023-09-19T14:20:43;18.90;99.90
59311;DHT22;45078;51.654;21.250;2023-09-19T14:23:09;18.90;99.90
59311;DHT22;45078;51.654;21.250;2023-09-19T14:25:35;18.90;99.90
59311;DHT22;45078;51.654;21.250;2023-09-19T14:28:01;18.90;99.90
59311;DHT22;45078;51.654;21.250;2023-09-19T14:30:27;18.90;99.90
59311;DHT22;45078;51.654;21.250;2023-09-19T14:32:53;19.00;99.90
59311;DHT22;45078;51.654;21.250;2023-09-19T14:35:19;19.00;99.90
59311;DHT22;45078;51.654;21.250;2023-09-19T14:37:44;19.00;99.90
59311;DHT22;45078;51.654;21.250;2023-09-19T14:40:11;19.10;99.90
59311;DHT22;45078;51.654;21.250;2023-09-19T14:42:39;19.10;99.90
59311;DHT22;45078;51.654;21.250;2023-09-19T14:45:05;19.10;99.90
59311;DHT22;45078;51.654;21.250;2023-09-19T14:47:32;19.00;99.90
59311;DHT22;45078;51.654;21.250;2023-09-19T14:50:00;19.00;99.90
59311;DHT22;45078;51.654;21.250;2023-09-19T14:52:26;19.10;99.90
59311;DHT22;45078;51.654;21.250;2023-09-19T14:54:54;19.10;99.90
59311;DHT22;45078;51.654;21.250;2023-09-19T14:57:20;19.10;99.90
59311;DHT22;45078;51.654;21.250;2023-09-19T14:59:49;19.10;99.90
59311;DHT22;45078;51.654;21.250;2023-09-19T15:02:16;19.10;99.90
59311;DHT22;45078;51.654;21.250;2023-09-19T15:04:42;19.10;99.90
59311;DHT22;45078;51.654;21.250;2023-09-19T15:07:10;19.10;99.90
59311;DHT22;45078;51.654;21.250;2023-09-19T15:09:35;19.10;99.90
59311;DHT22;45078;51.654;21.250;2023-09-19T15:12:01;19.10;99.90
59311;DHT22;45078;51.654;21.250;2023-09-19T15:14:27;19.10;99.90
59311;DHT22;45078;51.654;21.250;2023-09-19T15:16:55;19.00;99.90
59311;DHT22;45078;51.654;21.250;2023-09-19T15:19:20;19.00;99.90
59311;DHT22;45078;51.654;21.250;2023-09-19T15:21:48;18.90;99.90
59311;DHT22;45078;51.654;21.250;2023-09-19T15:24:13;18.90;99.90
59311;DHT22;45078;51.654;21.250;2023-09-19T15:26:40;18.90;99.90
59311;DHT22;45078;51.654;21.250;2023-09-19T15:29:09;18.80;99.90
59311;DHT22;45078;51.654;21.250;2023-09-19T15:31:35;18.80;99.90
59311;DHT22;45078;51.654;21.250;2023-09-19T15:34:02;18.80;99.90
59311;DHT22;45078;51.654;21.250;2023-09-19T15:36:28;18.80;99.90
59311;DHT22;45078;51.654;21.250;2023-09-19T15:39:04;18.80;99.90
59311;DHT22;45078;51.654;21.250;2023-09-19T15:41:40;18.80;99.90
59311;DHT22;45078;51.654;21.250;2023-09-19T15:44:13;18.80;99.90
59311;DHT22;45078;51.654;21.250;2023-09-19T15:46:39;18.80;99.90
59311;DHT22;45078;51.654;21.250;2023-09-19T15:49:06;18.80;99.90
59311;DHT22;45078;51.654;21.250;2023-09-19T15:51:32;18.80;99.90
59311;DHT22;45078;51.654;21.250;2023-09-19T15:53:58;18.70;99.90
59311;DHT22;45078;51.654;21.250;2023-09-19T15:56:26;18.70;99.90
59311;DHT22;45078;51.654;21.250;2023-09-19T15:58:55;18.70;99.90
59311;DHT22;45078;51.654;21.250;2023-09-19T16:01:21;18.70;99.90
59311;DHT22;45078;51.654;21.250;2023-09-19T16:03:51;18.70;99.90
59311;DHT22;45078;51.654;21.250;2023-09-19T16:06:28;18.70;99.90